createdAt,value
2023-04-26T00:00:29.303Z,6.50
2023-04-26T00:01:31.576Z,6.51
2023-04-26T00:02:34.408Z,6.45
2023-04-26T00:03:37.995Z,6.48
2023-04-26T00:04:40.971Z,6.46
2023-04-26T00:05:43.470Z,6.45
2023-04-26T00:06:46.000Z,6.44
2023-04-26T00:07:50.441Z,6.48
2023-04-26T00:08:52.834Z,6.44
2023-04-26T00:09:55.609Z,6.44
2023-04-26T00:10:57.932Z,6.43
2023-04-26T00:12:00.547Z,6.46
2023-04-26T00:13:03.453Z,6.47
2023-04-26T00:14:05.628Z,6.47
2023-04-26T00:15:08.665Z,6.44
2023-04-26T00:16:10.916Z,6.45
2023-04-26T00:17:13.120Z,6.45
2023-04-26T00:18:15.457Z,6.38
2023-04-26T00:19:18.365Z,6.33
2023-04-26T00:20:20.530Z,6.33
2023-04-26T00:21:22.706Z,6.37
2023-04-26T00:22:25.583Z,6.45
2023-04-26T00:23:27.932Z,6.38
2023-04-26T00:24:30.316Z,6.34
2023-04-26T00:25:32.667Z,6.22
2023-04-26T00:26:35.084Z,6.26
2023-04-26T00:27:37.333Z,6.25
2023-04-26T00:28:39.830Z,6.24
2023-04-26T00:29:42.346Z,6.18
2023-04-26T00:31:02.774Z,6.21
2023-04-26T00:32:05.832Z,6.25
2023-04-26T00:33:08.216Z,6.21
2023-04-26T00:34:10.610Z,6.18
2023-04-26T00:35:13.006Z,6.15
2023-04-26T00:36:19.179Z,6.15
2023-04-26T00:37:21.940Z,6.09
2023-04-26T00:38:24.427Z,6.10
2023-04-26T00:39:27.232Z,6.07
2023-04-26T00:40:30.921Z,6.07
2023-04-26T00:41:33.138Z,6.10
2023-04-26T00:42:35.480Z,6.11
2023-04-26T00:43:38.323Z,6.06
2023-04-26T00:44:40.759Z,6.07
2023-04-26T00:45:43.153Z,6.01
2023-04-26T00:46:46.310Z,5.96
2023-04-26T00:47:48.557Z,5.92
2023-04-26T00:48:52.103Z,5.95
2023-04-26T00:49:54.592Z,5.93
2023-04-26T00:50:57.210Z,5.95
2023-04-26T00:51:59.823Z,5.96
2023-04-26T00:53:02.939Z,6.00
2023-04-26T00:54:05.417Z,5.92
2023-04-26T00:55:08.910Z,5.93
2023-04-26T00:56:12.356Z,5.98
2023-04-26T00:57:14.917Z,5.88
2023-04-26T00:58:20.662Z,5.83
2023-04-26T00:59:23.416Z,5.85
2023-04-26T01:00:26.305Z,5.84
2023-04-26T01:01:29.349Z,5.84
2023-04-26T01:02:31.637Z,5.86
2023-04-26T01:03:34.616Z,5.89
2023-04-26T01:04:37.380Z,5.83
2023-04-26T01:05:39.840Z,5.78
2023-04-26T01:06:42.410Z,5.79
2023-04-26T01:07:46.047Z,5.76
2023-04-26T01:08:51.796Z,5.76
2023-04-26T01:09:56.646Z,5.77
2023-04-26T01:10:59.585Z,5.84
2023-04-26T01:12:02.674Z,5.82
2023-04-26T01:13:05.451Z,5.87
2023-04-26T01:14:08.563Z,5.72
2023-04-26T01:15:11.491Z,5.71
2023-04-26T01:16:15.817Z,5.76
2023-04-26T01:17:18.170Z,5.73
2023-04-26T01:18:20.827Z,5.71
2023-04-26T01:19:23.442Z,5.69
2023-04-26T01:23:13.085Z,5.61
2023-04-26T01:24:15.706Z,5.61
2023-04-26T01:25:18.735Z,5.58
2023-04-26T01:26:21.237Z,5.61
2023-04-26T01:27:23.449Z,5.59
2023-04-26T01:28:25.739Z,5.62
2023-04-26T01:29:28.185Z,5.61
2023-04-26T01:30:32.399Z,5.57
2023-04-26T01:31:38.651Z,5.56
2023-04-26T01:32:40.920Z,5.46
2023-04-26T01:33:43.403Z,5.41
2023-04-26T01:34:45.615Z,5.44
2023-04-26T01:35:47.790Z,5.47
2023-04-26T01:36:50.224Z,5.51
2023-04-26T01:37:52.449Z,5.48
2023-04-26T01:38:56.436Z,5.50
2023-04-26T01:39:58.861Z,5.48
2023-04-26T01:41:01.487Z,5.45
2023-04-26T01:42:05.397Z,5.46
2023-04-26T01:43:07.761Z,5.47
2023-04-26T01:44:09.946Z,5.46
2023-04-26T01:45:12.330Z,5.46
2023-04-26T01:46:33.282Z,5.41
2023-04-26T01:47:35.877Z,5.37
2023-04-26T01:48:38.256Z,5.44
2023-04-26T01:49:41.621Z,5.50
2023-04-26T01:50:43.910Z,5.52
2023-04-26T01:51:48.830Z,5.50
2023-04-26T01:52:51.585Z,5.54
2023-04-26T01:53:54.517Z,5.59
2023-04-26T01:54:57.429Z,5.57
2023-04-26T01:56:03.242Z,5.63
2023-04-26T01:57:06.535Z,5.65
2023-04-26T01:58:08.746Z,5.65
2023-04-26T01:59:10.922Z,5.64
2023-04-26T02:00:13.385Z,5.65
2023-04-26T02:01:15.780Z,5.66
2023-04-26T02:02:21.332Z,5.61
2023-04-26T02:03:23.890Z,5.62
2023-04-26T02:04:26.481Z,5.64
2023-04-26T02:05:28.696Z,5.68
2023-04-26T02:06:32.381Z,5.71
2023-04-26T02:07:34.969Z,5.75
2023-04-26T02:08:37.230Z,5.74
2023-04-26T02:09:39.490Z,5.73
2023-04-26T02:10:41.896Z,5.78
2023-04-26T02:11:44.415Z,5.87
2023-04-26T02:12:46.754Z,5.81
2023-04-26T02:13:49.580Z,5.89
2023-04-26T02:14:56.439Z,5.91
2023-04-26T02:15:59.463Z,5.93
2023-04-26T02:17:02.168Z,5.95
2023-04-26T02:18:04.595Z,5.92
2023-04-26T02:19:10.879Z,5.94
2023-04-26T02:20:16.592Z,5.90
2023-04-26T02:21:19.640Z,5.89
2023-04-26T02:22:25.190Z,5.89
2023-04-26T02:23:27.437Z,5.90
2023-04-26T02:24:30.960Z,5.95
2023-04-26T02:25:34.239Z,5.91
2023-04-26T02:26:36.439Z,5.91
2023-04-26T02:27:39.045Z,5.84
2023-04-26T02:28:42.231Z,5.78
2023-04-26T02:29:45.058Z,5.78
2023-04-26T02:30:48.144Z,5.77
2023-04-26T02:31:50.535Z,5.81
2023-04-26T02:32:54.612Z,5.83
2023-04-26T02:33:57.072Z,5.85
2023-04-26T02:34:59.357Z,5.87
2023-04-26T02:36:06.162Z,5.88
2023-04-26T02:37:09.038Z,5.91
2023-04-26T02:38:11.265Z,5.92
2023-04-26T02:39:13.965Z,5.93
2023-04-26T02:40:16.206Z,5.88
2023-04-26T02:41:18.599Z,5.77
2023-04-26T02:42:20.994Z,5.87
2023-04-26T02:43:23.371Z,5.91
2023-04-26T02:44:25.911Z,5.92
2023-04-26T02:45:28.186Z,5.86
2023-04-26T02:46:30.705Z,5.86
2023-04-26T02:47:33.038Z,5.81
2023-04-26T02:48:35.600Z,5.78
2023-04-26T02:49:37.953Z,5.76
2023-04-26T02:50:40.173Z,5.71
2023-04-26T02:51:42.424Z,5.70
2023-04-26T02:52:44.700Z,5.72
2023-04-26T02:53:47.078Z,5.66
2023-04-26T02:54:49.460Z,5.69
2023-04-26T02:55:51.973Z,5.65
2023-04-26T02:56:55.378Z,5.67
2023-04-26T02:57:57.795Z,5.72
2023-04-26T02:59:00.281Z,5.76
2023-04-26T03:00:05.062Z,5.77
2023-04-26T03:01:07.343Z,5.70
2023-04-26T03:02:09.609Z,5.72
2023-04-26T03:03:12.478Z,5.72
2023-04-26T03:04:16.023Z,5.69
2023-04-26T03:05:20.275Z,5.63
2023-04-26T03:06:22.577Z,5.62
2023-04-26T03:07:24.860Z,5.58
2023-04-26T03:08:27.123Z,5.59
2023-04-26T03:09:29.361Z,5.62
2023-04-26T03:10:31.886Z,5.58
2023-04-26T03:11:34.652Z,5.59
2023-04-26T03:12:37.799Z,5.53
2023-04-26T03:13:39.976Z,5.63
2023-04-26T03:14:43.115Z,5.63
2023-04-26T03:15:46.641Z,5.64
2023-04-26T03:16:48.963Z,5.63
2023-04-26T03:17:52.236Z,5.54
2023-04-26T03:18:54.824Z,5.60
2023-04-26T03:19:57.649Z,5.56
2023-04-26T03:21:00.308Z,5.66
2023-04-26T03:22:02.640Z,5.66
2023-04-26T03:23:05.247Z,5.59
2023-04-26T03:24:07.799Z,5.45
2023-04-26T03:25:10.200Z,5.38
2023-04-26T03:26:12.965Z,5.34
2023-04-26T03:27:15.937Z,5.42
2023-04-26T03:28:18.177Z,5.48
2023-04-26T03:29:20.611Z,5.47
2023-04-26T03:30:22.832Z,5.34
2023-04-26T03:31:25.501Z,5.23
2023-04-26T03:32:27.754Z,5.29
2023-04-26T03:33:31.828Z,5.47
2023-04-26T03:34:34.104Z,5.59
2023-04-26T03:35:36.949Z,5.55
2023-04-26T03:36:40.034Z,5.45
2023-04-26T03:37:42.955Z,5.38
2023-04-26T03:38:48.147Z,5.38
2023-04-26T03:39:53.471Z,5.29
2023-04-26T03:40:58.144Z,5.30
2023-04-26T03:42:01.397Z,5.25
2023-04-26T03:43:03.734Z,5.17
2023-04-26T03:44:06.718Z,5.17
2023-04-26T03:45:09.414Z,5.20
2023-04-26T03:46:11.701Z,5.30
2023-04-26T03:47:16.010Z,5.24
2023-04-26T03:48:18.353Z,5.10
2023-04-26T03:49:21.236Z,5.05
2023-04-26T03:50:23.481Z,5.01
2023-04-26T03:51:27.670Z,5.08
2023-04-26T03:52:29.908Z,5.16
2023-04-26T03:53:32.314Z,5.29
2023-04-26T03:54:35.047Z,5.30
2023-04-26T03:55:37.814Z,5.27
2023-04-26T03:56:41.509Z,5.22
2023-04-26T03:57:43.868Z,5.20
2023-04-26T03:58:46.655Z,5.16
2023-04-26T03:59:48.904Z,5.11
2023-04-26T04:00:52.440Z,5.22
2023-04-26T04:01:55.205Z,5.18
2023-04-26T04:02:57.757Z,5.12
2023-04-26T04:04:02.230Z,5.06
2023-04-26T04:05:05.649Z,5.21
2023-04-26T04:06:08.055Z,5.22
2023-04-26T04:07:10.717Z,5.21
2023-04-26T04:08:12.924Z,5.23
2023-04-26T04:09:15.994Z,5.16
2023-04-26T04:10:18.380Z,5.24
2023-04-26T04:11:23.198Z,5.24
2023-04-26T04:12:26.573Z,5.27
2023-04-26T04:13:28.934Z,5.26
2023-04-26T04:14:31.351Z,5.32
2023-04-26T04:15:33.593Z,5.32
2023-04-26T04:16:37.890Z,5.27
2023-04-26T04:17:40.691Z,5.29
2023-04-26T04:18:43.535Z,5.27
2023-04-26T04:19:46.324Z,5.32
2023-04-26T04:20:48.557Z,5.43
2023-04-26T04:21:51.795Z,5.51
2023-04-26T04:22:55.512Z,5.53
2023-04-26T04:23:57.941Z,5.49
2023-04-26T04:25:00.811Z,5.45
2023-04-26T04:26:03.378Z,5.37
2023-04-26T04:27:05.852Z,5.38
2023-04-26T04:28:09.001Z,5.51
2023-04-26T04:29:11.940Z,5.51
2023-04-26T04:30:14.577Z,5.45
2023-04-26T04:31:17.548Z,5.41
2023-04-26T04:32:20.587Z,5.39
2023-04-26T04:33:39.305Z,5.39
2023-04-26T04:34:43.158Z,5.41
2023-04-26T04:35:45.477Z,5.52
2023-04-26T04:36:47.988Z,5.55
2023-04-26T04:37:50.703Z,5.49
2023-04-26T04:38:53.677Z,5.46
2023-04-26T04:39:56.494Z,5.48
2023-04-26T04:41:00.713Z,5.50
2023-04-26T04:42:03.126Z,5.49
2023-04-26T04:43:05.991Z,5.51
2023-04-26T04:44:08.475Z,5.47
2023-04-26T04:45:11.060Z,5.36
2023-04-26T04:46:15.488Z,5.27
2023-04-26T04:47:17.882Z,5.29
2023-04-26T04:48:21.599Z,5.34
2023-04-26T04:49:24.958Z,5.34
2023-04-26T04:50:28.303Z,5.34
2023-04-26T04:51:31.580Z,5.31
2023-04-26T04:52:34.156Z,5.26
2023-04-26T04:53:36.792Z,5.22
2023-04-26T04:54:39.626Z,5.19
2023-04-26T04:55:41.957Z,5.17
2023-04-26T04:56:45.430Z,5.22
2023-04-26T04:57:49.668Z,5.28
2023-04-26T04:58:52.555Z,5.33
2023-04-26T04:59:56.811Z,5.35
2023-04-26T05:01:01.377Z,5.33
2023-04-26T05:02:05.718Z,5.29
2023-04-26T05:03:10.428Z,5.33
2023-04-26T05:04:13.280Z,5.21
2023-04-26T05:05:16.801Z,5.28
2023-04-26T05:06:20.331Z,5.29
2023-04-26T05:07:24.409Z,5.28
2023-04-26T05:08:29.140Z,5.30
2023-04-26T05:09:34.233Z,5.26
2023-04-26T05:10:36.943Z,5.27
2023-04-26T05:11:39.399Z,5.29
2023-04-26T05:12:43.963Z,5.43
2023-04-26T05:13:47.283Z,5.55
2023-04-26T05:14:50.049Z,5.62
2023-04-26T05:15:52.488Z,5.56
2023-04-26T05:16:54.818Z,5.56
2023-04-26T05:17:59.610Z,5.53
2023-04-26T05:19:02.191Z,5.61
2023-04-26T05:20:07.389Z,5.68
2023-04-26T05:21:10.462Z,5.65
2023-04-26T05:22:18.323Z,5.64
2023-04-26T05:23:21.693Z,5.65
2023-04-26T05:24:24.229Z,5.70
2023-04-26T05:25:27.264Z,5.64
2023-04-26T05:26:36.046Z,5.71
2023-04-26T05:27:56.911Z,5.70
2023-04-26T05:29:10.262Z,5.70
2023-04-26T05:30:32.896Z,5.69
2023-04-26T05:31:55.450Z,5.64
2023-04-26T05:33:30.914Z,5.41
2023-04-26T05:34:51.144Z,5.48
2023-04-26T05:35:54.182Z,5.52
2023-04-26T05:36:57.444Z,5.54
2023-04-26T05:37:59.763Z,5.57
2023-04-26T05:39:02.405Z,5.59
2023-04-26T05:40:05.531Z,5.61
2023-04-26T05:41:08.399Z,5.58
2023-04-26T05:42:11.132Z,5.64
2023-04-26T05:43:15.276Z,5.44
2023-04-26T05:44:17.634Z,5.41
2023-04-26T05:45:21.612Z,5.37
2023-04-26T05:46:26.028Z,5.33
2023-04-26T05:47:28.431Z,5.41
2023-04-26T05:48:31.070Z,5.28
2023-04-26T05:49:33.512Z,5.21
2023-04-26T05:50:40.002Z,5.15
2023-04-26T05:51:47.389Z,5.24
2023-04-26T05:52:51.337Z,5.32
2023-04-26T05:53:54.801Z,5.44
2023-04-26T05:54:58.005Z,5.51
2023-04-26T05:56:00.829Z,5.52
2023-04-26T05:57:04.818Z,5.54
2023-04-26T05:58:07.932Z,5.58
2023-04-26T05:59:19.720Z,5.69
2023-04-26T06:00:23.861Z,5.64
2023-04-26T06:01:26.355Z,5.70
2023-04-26T06:02:28.730Z,5.82
2023-04-26T06:03:31.382Z,5.95
2023-04-26T06:04:34.037Z,5.95
2023-04-26T06:05:41.697Z,5.91
2023-04-26T06:06:44.566Z,5.98
2023-04-26T06:07:47.032Z,6.02
2023-04-26T06:08:49.348Z,6.13
2023-04-26T06:09:51.885Z,6.32
2023-04-26T06:10:54.878Z,6.61
2023-04-26T06:11:57.418Z,6.82
2023-04-26T06:12:59.808Z,7.10
2023-04-26T06:14:04.918Z,7.43
2023-04-26T06:15:07.698Z,7.87
2023-04-26T06:16:12.229Z,8.25
2023-04-26T06:17:14.540Z,8.24
2023-04-26T06:18:18.684Z,8.43
2023-04-26T06:19:22.555Z,8.56
2023-04-26T06:20:26.210Z,8.68
2023-04-26T06:21:28.548Z,8.93
2023-04-26T06:22:31.222Z,8.89
2023-04-26T06:23:33.697Z,8.82
2023-04-26T06:24:36.204Z,8.71
2023-04-26T06:25:42.251Z,8.58
2023-04-26T06:26:44.608Z,8.43
2023-04-26T06:27:47.248Z,8.74
2023-04-26T06:28:49.669Z,9.01
2023-04-26T06:29:52.621Z,9.09
2023-04-26T06:30:56.448Z,9.32
2023-04-26T06:31:59.275Z,9.60
2023-04-26T06:33:05.438Z,9.69
2023-04-26T06:34:09.305Z,10.08
2023-04-26T06:35:11.769Z,10.16
2023-04-26T06:36:14.605Z,10.40
2023-04-26T06:37:18.158Z,10.40
2023-04-26T06:38:20.439Z,10.33
2023-04-26T06:39:22.715Z,10.16
2023-04-26T06:40:25.046Z,10.28
2023-04-26T06:41:28.574Z,10.41
2023-04-26T06:42:31.071Z,10.52
2023-04-26T06:43:56.474Z,10.86
2023-04-26T06:45:06.703Z,10.77
2023-04-26T06:46:10.344Z,10.90
2023-04-26T06:47:12.744Z,10.88
2023-04-26T06:48:15.302Z,11.01
2023-04-26T06:49:17.643Z,10.90
2023-04-26T06:50:20.280Z,10.89
2023-04-26T06:51:22.997Z,10.56
2023-04-26T06:52:26.262Z,10.84
2023-04-26T06:53:28.734Z,10.99
2023-04-26T06:54:31.393Z,11.26
2023-04-26T06:55:34.370Z,11.45
2023-04-26T06:56:36.818Z,11.36
2023-04-26T06:57:39.377Z,11.07
2023-04-26T06:59:01.991Z,10.57
2023-04-26T07:00:05.083Z,10.38
2023-04-26T07:01:08.642Z,10.54
2023-04-26T07:02:11.603Z,10.46
2023-04-26T07:03:14.844Z,10.47
2023-04-26T07:04:18.827Z,10.51
2023-04-26T07:05:21.714Z,10.48
2023-04-26T07:06:25.054Z,10.37
2023-04-26T07:07:27.590Z,10.37
2023-04-26T07:08:30.099Z,10.51
2023-04-26T07:09:32.436Z,10.49
2023-04-26T07:10:35.205Z,10.11
2023-04-26T07:11:37.656Z,10.17
2023-04-26T07:12:40.358Z,10.29
2023-04-26T07:13:42.682Z,10.46
2023-04-26T07:14:45.117Z,10.63
2023-04-26T07:15:47.372Z,10.59
2023-04-26T07:16:50.037Z,10.80
2023-04-26T07:17:52.411Z,10.96
2023-04-26T07:18:58.192Z,11.08
2023-04-26T07:20:01.019Z,11.34
2023-04-26T07:21:03.405Z,11.42
2023-04-26T07:22:06.352Z,11.27
2023-04-26T07:23:08.564Z,10.68
2023-04-26T07:24:10.868Z,10.75
2023-04-26T07:25:13.488Z,10.94
2023-04-26T07:26:16.158Z,11.38
2023-04-26T07:27:18.619Z,11.14
2023-04-26T07:28:20.991Z,11.17
2023-04-26T07:29:23.446Z,11.37
2023-04-26T07:30:26.065Z,11.43
2023-04-26T07:31:28.518Z,11.55
2023-04-26T07:32:31.194Z,11.36
2023-04-26T07:33:33.674Z,11.49
2023-04-26T07:34:36.328Z,11.61
2023-04-26T07:35:38.641Z,11.92
2023-04-26T07:36:40.960Z,11.75
2023-04-26T07:37:44.364Z,11.93
2023-04-26T07:38:46.774Z,11.90
2023-04-26T07:39:49.073Z,11.86
2023-04-26T07:40:52.025Z,11.45
2023-04-26T07:41:54.474Z,11.61
2023-04-26T07:42:59.333Z,11.84
2023-04-26T07:44:02.055Z,12.00
2023-04-26T07:45:04.907Z,12.28
2023-04-26T07:46:07.256Z,12.60
2023-04-26T07:47:13.585Z,12.89
2023-04-26T07:48:17.476Z,13.14
2023-04-26T07:49:19.839Z,13.48
2023-04-26T07:50:22.329Z,13.61
2023-04-26T07:51:24.680Z,13.29
2023-04-26T07:52:26.912Z,12.14
2023-04-26T07:53:29.359Z,11.13
2023-04-26T07:54:31.724Z,11.22
2023-04-26T07:55:33.935Z,11.52
2023-04-26T07:56:36.444Z,11.49
2023-04-26T07:57:39.205Z,11.95
2023-04-26T07:58:41.983Z,12.40
2023-04-26T07:59:44.414Z,12.11
2023-04-26T08:00:46.728Z,12.03
2023-04-26T08:01:49.014Z,12.19
2023-04-26T08:02:51.932Z,12.24
2023-04-26T08:03:56.034Z,12.18
2023-04-26T08:05:00.782Z,12.07
2023-04-26T08:06:03.643Z,11.95
2023-04-26T08:07:06.405Z,12.13
2023-04-26T08:08:08.896Z,12.14
2023-04-26T08:09:30.908Z,12.11
2023-04-26T08:10:33.562Z,12.00
2023-04-26T08:11:36.120Z,11.71
2023-04-26T08:12:39.184Z,11.39
2023-04-26T08:13:44.281Z,10.63
2023-04-26T08:14:46.652Z,10.25
2023-04-26T08:15:49.171Z,10.10
2023-04-26T08:16:51.979Z,10.60
2023-04-26T08:17:54.451Z,11.08
2023-04-26T08:19:02.882Z,11.45
2023-04-26T08:20:06.144Z,11.59
2023-04-26T08:21:08.887Z,11.83
2023-04-26T08:22:11.207Z,12.12
2023-04-26T08:23:14.547Z,12.36
2023-04-26T08:24:16.762Z,12.17
2023-04-26T08:25:19.332Z,12.12
2023-04-26T08:26:22.018Z,11.90
2023-04-26T08:27:24.498Z,11.84
2023-04-26T08:28:28.237Z,12.18
2023-04-26T08:29:31.048Z,12.77
2023-04-26T08:30:33.449Z,12.91
2023-04-26T08:31:36.189Z,12.58
2023-04-26T08:32:38.697Z,12.74
2023-04-26T08:33:41.271Z,13.02
2023-04-26T08:34:43.679Z,12.61
2023-04-26T08:35:45.958Z,12.02
2023-04-26T08:36:48.197Z,11.51
2023-04-26T08:37:50.934Z,10.92
2023-04-26T08:38:53.331Z,10.52
2023-04-26T08:39:55.613Z,10.38
2023-04-26T08:41:02.104Z,10.50
2023-04-26T08:42:14.455Z,10.45
2023-04-26T08:43:17.638Z,10.35
2023-04-26T08:44:26.702Z,10.19
2023-04-26T08:45:28.963Z,9.91
2023-04-26T08:46:58.831Z,9.85
2023-04-26T08:48:11.777Z,9.69
2023-04-26T08:49:23.111Z,9.47
2023-04-26T08:50:25.552Z,9.52
2023-04-26T08:51:29.279Z,9.73
2023-04-26T08:52:32.845Z,9.90
2023-04-26T08:53:37.149Z,9.81
2023-04-26T08:54:41.120Z,9.89
2023-04-26T08:55:48.690Z,9.83
2023-04-26T08:56:53.180Z,9.94
2023-04-26T08:57:56.279Z,9.96
2023-04-26T08:59:00.260Z,9.79
2023-04-26T09:00:15.875Z,9.48
2023-04-26T09:01:18.907Z,9.42
2023-04-26T09:02:23.242Z,9.26
2023-04-26T09:03:26.505Z,9.05
2023-04-26T09:04:29.642Z,9.00
2023-04-26T09:05:34.360Z,8.74
2023-04-26T09:06:37.452Z,8.52
2023-04-26T09:07:47.705Z,8.32
2023-04-26T09:08:53.340Z,8.12
2023-04-26T09:09:58.518Z,8.10
2023-04-26T09:11:01.119Z,7.98
2023-04-26T09:12:04.390Z,8.04
2023-04-26T09:13:07.282Z,8.30
2023-04-26T09:14:09.812Z,8.59
2023-04-26T09:15:14.680Z,8.78
2023-04-26T09:16:17.061Z,8.99
2023-04-26T09:17:29.633Z,9.27
2023-04-26T09:18:33.971Z,9.47
2023-04-26T09:19:44.526Z,9.60
2023-04-26T09:21:02.459Z,9.69
2023-04-26T09:22:06.367Z,9.81
2023-04-26T09:23:10.417Z,9.91
2023-04-26T09:24:14.368Z,9.91
2023-04-26T09:25:20.327Z,9.88
2023-04-26T09:26:23.077Z,9.59
2023-04-26T09:27:39.963Z,9.58
2023-04-26T09:28:42.650Z,9.64
2023-04-26T09:30:07.898Z,9.85
2023-04-26T09:31:10.457Z,9.71
2023-04-26T09:32:12.853Z,9.67
2023-04-26T09:33:15.323Z,9.78
2023-04-26T09:34:17.588Z,9.84
2023-04-26T09:35:37.176Z,10.15
2023-04-26T09:36:48.829Z,10.32
2023-04-26T09:38:12.097Z,10.46
2023-04-26T09:39:15.349Z,10.93
2023-04-26T09:40:21.730Z,11.04
2023-04-26T09:41:24.156Z,11.06
2023-04-26T09:42:26.819Z,11.20
2023-04-26T09:43:37.646Z,10.99
2023-04-26T09:44:40.201Z,10.83
2023-04-26T09:45:53.218Z,10.66
2023-04-26T09:47:10.230Z,10.65
2023-04-26T09:48:16.973Z,10.65
2023-04-26T09:49:19.292Z,10.48
2023-04-26T09:50:29.333Z,10.41
2023-04-26T09:51:33.054Z,10.35
2023-04-26T09:52:44.009Z,10.32
2023-04-26T09:53:46.670Z,10.14
2023-04-26T09:54:54.285Z,10.16
2023-04-26T09:56:13.776Z,10.21
2023-04-26T09:57:19.560Z,10.11
2023-04-26T09:58:23.169Z,9.96
2023-04-26T09:59:25.429Z,9.92
2023-04-26T10:00:28.118Z,10.07
2023-04-26T10:01:30.853Z,10.35
2023-04-26T10:02:39.772Z,10.76
2023-04-26T10:03:43.163Z,11.10
2023-04-26T10:04:47.923Z,11.46
2023-04-26T10:05:50.925Z,11.72
2023-04-26T10:06:53.562Z,11.81
2023-04-26T10:07:55.819Z,12.04
2023-04-26T10:08:58.307Z,12.05
2023-04-26T10:10:02.230Z,12.13
2023-04-26T10:11:07.586Z,11.93
2023-04-26T10:12:12.284Z,11.39
2023-04-26T10:13:16.833Z,11.22
2023-04-26T10:14:19.175Z,11.46
2023-04-26T10:15:21.635Z,11.89
2023-04-26T10:16:24.238Z,12.29
2023-04-26T10:17:26.793Z,12.52
2023-04-26T10:18:29.948Z,12.74
2023-04-26T10:19:34.555Z,12.85
2023-04-26T10:20:42.521Z,12.63
2023-04-26T10:21:47.107Z,12.33
2023-04-26T10:22:55.652Z,12.15
2023-04-26T10:24:00.304Z,12.12
2023-04-26T10:25:02.703Z,12.09
2023-04-26T10:26:05.472Z,11.94
2023-04-26T10:27:08.618Z,11.84
2023-04-26T10:28:11.043Z,11.99
2023-04-26T10:29:13.441Z,12.20
2023-04-26T10:30:24.841Z,12.45
2023-04-26T10:32:01.923Z,12.26
2023-04-26T10:33:04.710Z,12.14
2023-04-26T10:34:20.019Z,11.73
2023-04-26T10:35:27.071Z,11.41
2023-04-26T10:36:29.557Z,11.19
2023-04-26T10:37:31.956Z,11.06
2023-04-26T10:39:18.418Z,11.05
2023-04-26T10:40:26.204Z,11.03
2023-04-26T10:41:35.256Z,11.29
2023-04-26T10:42:39.261Z,11.50
2023-04-26T10:43:43.720Z,11.84
2023-04-26T10:44:45.960Z,12.12
2023-04-26T10:45:49.505Z,12.41
2023-04-26T10:46:52.842Z,12.70
2023-04-26T10:48:18.977Z,12.99
2023-04-26T10:49:26.283Z,13.07
2023-04-26T10:50:29.476Z,13.01
2023-04-26T10:51:32.027Z,12.67
2023-04-26T10:52:35.689Z,12.33
2023-04-26T10:53:47.308Z,12.21
2023-04-26T10:54:52.322Z,12.01
2023-04-26T10:55:54.906Z,11.75
2023-04-26T10:56:58.065Z,11.50
2023-04-26T10:58:01.418Z,11.19
2023-04-26T10:59:30.662Z,10.98
2023-04-26T11:00:33.287Z,10.85
2023-04-26T11:01:36.148Z,10.75
2023-04-26T11:03:06.531Z,10.82
2023-04-26T11:04:10.776Z,10.85
2023-04-26T11:05:35.424Z,10.89
2023-04-26T11:06:54.371Z,11.01
2023-04-26T11:08:19.515Z,10.94
2023-04-26T11:09:42.445Z,11.13
2023-04-26T11:10:51.537Z,11.37
2023-04-26T11:11:54.014Z,11.67
2023-04-26T11:13:01.690Z,11.97
2023-04-26T11:14:04.101Z,12.21
2023-04-26T11:15:07.271Z,12.30
2023-04-26T11:16:16.292Z,12.40
2023-04-26T11:17:20.049Z,12.33
2023-04-26T11:18:22.511Z,12.25
2023-04-26T11:19:26.531Z,11.98
2023-04-26T11:20:31.528Z,12.01
2023-04-26T11:21:34.622Z,12.04
2023-04-26T11:22:40.776Z,11.62
2023-04-26T11:23:43.432Z,11.10
2023-04-26T11:24:46.004Z,11.25
2023-04-26T11:25:48.574Z,11.59
2023-04-26T11:26:54.212Z,11.91
2023-04-26T11:28:01.867Z,12.24
2023-04-26T11:29:07.385Z,12.55
2023-04-26T11:30:10.434Z,12.74
2023-04-26T11:31:14.487Z,12.91
2023-04-26T11:32:16.791Z,13.04
2023-04-26T11:33:23.015Z,13.14
2023-04-26T11:34:41.934Z,13.19
2023-04-26T11:36:09.215Z,13.07
2023-04-26T11:37:11.721Z,13.17
2023-04-26T11:38:15.464Z,13.27
2023-04-26T11:39:20.841Z,13.40
2023-04-26T11:40:23.516Z,13.22
2023-04-26T11:41:25.873Z,13.02
2023-04-26T11:42:28.465Z,12.73
2023-04-26T11:43:37.999Z,12.47
2023-04-26T11:44:41.354Z,12.23
2023-04-26T11:45:44.017Z,12.31
2023-04-26T11:46:49.076Z,12.46
2023-04-26T11:47:51.704Z,12.46
2023-04-26T11:48:54.397Z,12.50
2023-04-26T11:49:57.129Z,12.47
2023-04-26T11:51:00.582Z,12.56
2023-04-26T11:52:04.924Z,12.71
2023-04-26T11:53:08.908Z,12.90
2023-04-26T11:54:11.499Z,12.63
2023-04-26T11:55:14.891Z,12.15
2023-04-26T11:56:22.040Z,11.82
2023-04-26T11:57:24.318Z,11.71
2023-04-26T11:58:26.626Z,11.52
2023-04-26T11:59:30.832Z,11.59
2023-04-26T12:00:33.104Z,11.59
2023-04-26T12:01:35.526Z,11.16
2023-04-26T12:02:38.293Z,11.13
2023-04-26T12:03:40.945Z,11.27
2023-04-26T12:04:44.678Z,11.39
2023-04-26T12:05:54.992Z,11.33
2023-04-26T12:06:58.515Z,11.41
2023-04-26T12:08:01.074Z,11.33
2023-04-26T12:09:06.124Z,11.40
2023-04-26T12:10:18.203Z,11.35
2023-04-26T12:11:21.249Z,11.38
2023-04-26T12:12:23.578Z,11.40
2023-04-26T12:13:26.099Z,11.42
2023-04-26T12:14:36.232Z,11.33
2023-04-26T12:15:40.307Z,11.25
2023-04-26T12:16:46.773Z,11.06
2023-04-26T12:18:13.571Z,11.01
2023-04-26T12:19:17.461Z,11.16
2023-04-26T12:20:26.117Z,11.11
2023-04-26T12:21:30.832Z,11.00
2023-04-26T12:22:41.947Z,11.04
2023-04-26T12:23:47.771Z,11.27
2023-04-26T12:24:50.263Z,11.43
2023-04-26T12:25:57.411Z,11.58
2023-04-26T12:27:04.328Z,11.69
2023-04-26T12:28:12.662Z,11.71
2023-04-26T12:29:15.238Z,11.91
2023-04-26T12:30:18.044Z,12.04
2023-04-26T12:31:20.575Z,12.19
2023-04-26T12:32:23.759Z,12.38
2023-04-26T12:33:26.065Z,12.50
2023-04-26T12:34:28.814Z,12.54
2023-04-26T12:35:32.203Z,12.70
2023-04-26T12:36:34.590Z,12.79
2023-04-26T12:37:37.106Z,12.88
2023-04-26T12:38:40.463Z,12.87
2023-04-26T12:39:43.911Z,12.98
2023-04-26T12:40:47.122Z,12.77
2023-04-26T12:41:49.645Z,12.44
2023-04-26T12:42:51.917Z,12.37
2023-04-26T12:43:54.192Z,12.06
2023-04-26T12:44:57.006Z,11.16
2023-04-26T12:45:59.643Z,10.61
2023-04-26T12:47:04.007Z,10.28
2023-04-26T12:48:06.729Z,10.15
2023-04-26T12:49:09.181Z,10.01
2023-04-26T12:50:17.108Z,9.74
2023-04-26T12:51:21.181Z,9.55
2023-04-26T12:52:23.440Z,9.64
2023-04-26T12:53:25.773Z,9.68
2023-04-26T12:54:28.107Z,9.86
2023-04-26T12:55:32.535Z,9.91
2023-04-26T12:56:38.165Z,10.16
2023-04-26T12:57:52.629Z,10.36
2023-04-26T12:58:55.126Z,10.31
2023-04-26T12:59:57.501Z,10.35
2023-04-26T13:01:00.034Z,10.38
2023-04-26T13:02:03.918Z,10.38
2023-04-26T13:03:06.667Z,10.25
2023-04-26T13:04:10.220Z,10.32
2023-04-26T13:05:12.953Z,10.36
2023-04-26T13:06:15.184Z,10.52
2023-04-26T13:07:17.896Z,10.62
2023-04-26T13:08:20.228Z,10.88
2023-04-26T13:09:22.513Z,11.01
2023-04-26T13:10:25.053Z,11.24
2023-04-26T13:11:27.325Z,11.43
2023-04-26T13:12:30.103Z,11.44
2023-04-26T13:13:43.180Z,11.43
2023-04-26T13:14:46.997Z,11.18
2023-04-26T13:15:49.534Z,11.29
2023-04-26T13:16:52.691Z,10.98
2023-04-26T13:17:55.366Z,11.07
2023-04-26T13:18:57.734Z,11.15
2023-04-26T13:19:59.994Z,11.03
2023-04-26T13:21:02.429Z,10.97
2023-04-26T13:22:07.722Z,11.07
2023-04-26T13:23:11.433Z,11.23
2023-04-26T13:24:13.820Z,11.47
2023-04-26T13:25:20.038Z,11.56
2023-04-26T13:26:22.428Z,11.79
2023-04-26T13:27:24.941Z,11.95
2023-04-26T13:28:27.251Z,12.17
2023-04-26T13:29:32.078Z,12.36
2023-04-26T13:30:34.419Z,12.20
2023-04-26T13:31:37.056Z,11.87
2023-04-26T13:32:39.964Z,11.84
2023-04-26T13:33:42.582Z,12.06
2023-04-26T13:34:47.860Z,12.22
2023-04-26T13:35:50.600Z,12.41
2023-04-26T13:36:53.791Z,12.52
2023-04-26T13:37:56.305Z,12.63
2023-04-26T13:38:59.571Z,12.35
2023-04-26T13:40:02.072Z,11.89
2023-04-26T13:41:04.409Z,11.51
2023-04-26T13:42:07.064Z,11.45
2023-04-26T13:43:09.810Z,11.46
2023-04-26T13:44:14.297Z,11.37
2023-04-26T13:45:18.743Z,11.27
2023-04-26T13:46:22.546Z,11.21
2023-04-26T13:47:25.006Z,11.24
2023-04-26T13:48:27.979Z,11.29
2023-04-26T13:49:30.349Z,11.27
2023-04-26T13:50:32.726Z,11.16
2023-04-26T13:51:34.982Z,11.27
2023-04-26T13:52:37.244Z,11.33
2023-04-26T13:53:39.784Z,11.41
2023-04-26T13:54:41.997Z,11.50
2023-04-26T13:55:44.253Z,11.56
2023-04-26T13:56:46.470Z,11.57
2023-04-26T13:57:48.666Z,11.66
2023-04-26T13:58:54.987Z,11.70
2023-04-26T13:59:57.296Z,11.58
2023-04-26T14:00:59.859Z,11.33
2023-04-26T14:02:02.097Z,11.22
2023-04-26T14:03:04.655Z,10.96
2023-04-26T14:04:10.891Z,10.88
2023-04-26T14:05:13.822Z,10.77
2023-04-26T14:06:16.434Z,10.74